Time;durP1;ratioP1;P1;durP2;ratioP2;P2;SDS_P1;SDS_P2;PMS_P1;PMS_P2;Temp;Humidity;BMP_temperature;BMP_pressure;BME280_temperature;BME280_humidity;BME280_pressure;Samples;Min_cycle;Max_cycle;Signal;HPM_P1;HPM_P2
2022/10/25 00:00:30;;;;;;;12.10;2.90;;;;;;;;;;5054342;28;20037;-76
2022/10/25 00:02:55;;;;;;;5.40;2.50;;;;;;;;;;5054293;28;20111;-76
2022/10/25 00:05:20;;;;;;;3.35;2.58;;;;;;;;;;5054537;28;20467;-74
2022/10/25 00:07:46;;;;;;;5.38;2.50;;;;;;;;;;5054488;28;20036;-75
2022/10/25 00:10:11;;;;;;;6.30;3.10;;;;;;;;;;5054147;28;20017;-75
2022/10/25 00:12:41;;;;;;;5.22;3.08;;;;;;;;;;5053966;28;20055;-75
2022/10/25 00:15:08;;;;;;;6.43;2.78;;;;;;;;;;5054024;28;20040;-75
2022/10/25 00:17:33;;;;;;;4.70;2.92;;;;;;;;;;5053962;28;20036;-74
2022/10/25 00:19:58;;;;;;;6.03;2.60;;;;;;;;;;5053907;28;20025;-75
2022/10/25 00:22:23;;;;;;;9.48;3.00;;;;;;;;;;5053852;28;20563;-75
2022/10/25 00:24:49;;;;;;;8.93;2.70;;;;;;;;;;5053843;28;20033;-75
2022/10/25 00:27:14;;;;;;;4.43;2.50;;;;;;;;;;5054169;28;20539;-75
2022/10/25 00:29:40;;;;;;;6.32;2.45;;;;;;;;;;5053672;28;20024;-75
2022/10/25 00:32:05;;;;;;;7.47;3.10;;;;;;;;;;5053698;28;20187;-74
2022/10/25 00:34:30;;;;;;;7.38;2.97;;;;;;;;;;5054154;28;20029;-74
2022/10/25 00:36:55;;;;;;;6.68;2.70;;;;;;;;;;5053811;28;20059;-75
2022/10/25 00:39:21;;;;;;;5.35;2.50;;;;;;;;;;5053439;28;20500;-75
2022/10/25 00:41:46;;;;;;;5.13;2.40;;;;;;;;;;5053536;28;20020;-75
2022/10/25 00:44:39;;;;;;;5.57;2.90;;;;;;;;;;5052092;28;20021;-75
2022/10/25 00:47:18;;;;;;;6.07;2.55;;;;;;;;;;5053465;28;20100;-75
2022/10/25 00:49:46;;;;;;;6.82;2.38;;;;;;;;;;5053458;28;20024;-75
2022/10/25 00:52:12;;;;;;;5.63;2.67;;;;;;;;;;5053243;28;20398;-74
2022/10/25 00:54:47;;;;;;;9.98;2.70;;;;;;;;;;5053839;28;20029;-74
2022/10/25 00:57:30;;;;;;;4.68;2.35;;;;;;;;;;5053486;28;20032;-74
2022/10/25 00:59:55;;;;;;;7.15;2.40;;;;;;;;;;5053166;28;20033;-73
2022/10/25 01:02:22;;;;;;;4.63;3.00;;;;;;;;;;5051773;28;20074;-75
2022/10/25 01:04:48;;;;;;;7.57;2.47;;;;;;;;;;5053201;28;20045;-75
2022/10/25 01:07:14;;;;;;;9.25;3.00;;;;;;;;;;5053083;28;20033;-74
2022/10/25 01:09:40;;;;;;;4.05;2.67;;;;;;;;;;5053090;28;20025;-74
2022/10/25 01:12:05;;;;;;;5.47;2.90;;;;;;;;;;5052904;28;20510;-74
2022/10/25 01:14:35;;;;;;;4.55;3.00;;;;;;;;;;5053016;28;20037;-75
2022/10/25 01:17:12;;;;;;;4.05;2.92;;;;;;;;;;5052978;28;20029;-74
2022/10/25 01:20:15;;;;;;;4.97;2.60;;;;;;;;;;5053107;28;20054;-75
2022/10/25 01:23:24;;;;;;;8.25;2.65;;;;;;;;;;5051570;28;20029;-75
2022/10/25 01:26:13;;;;;;;5.72;2.50;;;;;;;;;;5053121;28;20013;-75
2022/10/25 01:29:04;;;;;;;6.10;2.80;;;;;;;;;;5053043;28;20029;-75
2022/10/25 01:32:18;;;;;;;9.38;2.90;;;;;;;;;;5053153;28;20025;-75
2022/10/25 01:35:06;;;;;;;4.93;2.55;;;;;;;;;;5011036;28;20034;-75
2022/10/25 01:37:34;;;;;;;9.50;2.67;;;;;;;;;;5050497;28;20037;-74
2022/10/25 01:40:08;;;;;;;19.10;3.65;;;;;;;;;;5051297;28;20021;-74
2022/10/25 01:42:50;;;;;;;6.00;2.97;;;;;;;;;;5069581;28;20129;-74
2022/10/25 01:45:26;;;;;;;7.35;2.85;;;;;;;;;;5055853;28;20557;-74
2022/10/25 01:47:58;;;;;;;12.15;3.50;;;;;;;;;;5054808;28;20128;-74
2022/10/25 01:50:27;;;;;;;6.88;3.42;;;;;;;;;;5055723;28;20029;-75
2022/10/25 01:52:52;;;;;;;9.60;4.43;;;;;;;;;;5071350;28;20033;-74
2022/10/25 01:55:19;;;;;;;8.43;4.00;;;;;;;;;;5056447;28;20035;-74
2022/10/25 01:57:50;;;;;;;8.98;3.85;;;;;;;;;;5056892;28;20490;-74
2022/10/25 02:00:18;;;;;;;5.95;3.22;;;;;;;;;;5056517;28;20033;-73
2022/10/25 02:03:00;;;;;;;5.88;2.95;;;;;;;;;;5071900;28;20117;-75
2022/10/25 02:05:52;;;;;;;5.30;3.00;;;;;;;;;;5056518;28;20489;-75
2022/10/25 02:08:35;;;;;;;5.38;3.13;;;;;;;;;;5056477;28;20075;-74
2022/10/25 02:11:23;;;;;;;7.55;3.05;;;;;;;;;;5056732;28;20163;-74
2022/10/25 02:14:00;;;;;;;5.32;3.13;;;;;;;;;;5056298;28;20033;-76
2022/10/25 02:16:31;;;;;;;6.93;3.42;;;;;;;;;;5071699;28;20025;-74
2022/10/25 02:19:05;;;;;;;9.70;3.50;;;;;;;;;;5056237;28;20487;-75
2022/10/25 02:21:33;;;;;;;6.82;3.10;;;;;;;;;;5056441;28;20025;-75
2022/10/25 02:24:02;;;;;;;3.95;2.72;;;;;;;;;;5056056;28;20029;-74
2022/10/25 02:26:28;;;;;;;6.82;3.20;;;;;;;;;;5071413;28;20025;-74
2022/10/25 02:28:53;;;;;;;7.95;3.13;;;;;;;;;;5056671;28;20486;-75
2022/10/25 02:31:22;;;;;;;8.40;3.45;;;;;;;;;;5055976;28;20055;-73
2022/10/25 02:33:48;;;;;;;6.90;3.00;;;;;;;;;;5056044;28;20122;-74
2022/10/25 02:36:17;;;;;;;9.18;3.35;;;;;;;;;;5054684;28;20035;-75
2022/10/25 02:38:43;;;;;;;11.07;2.75;;;;;;;;;;5056165;28;20460;-75
2022/10/25 02:41:08;;;;;;;7.90;3.22;;;;;;;;;;5071285;28;20017;-75
2022/10/25 02:43:34;;;;;;;5.88;3.03;;;;;;;;;;5055826;28;20053;-74
2022/10/25 02:46:04;;;;;;;8.40;2.45;;;;;;;;;;5071144;28;20112;-75
2022/10/25 02:48:30;;;;;;;5.63;2.88;;;;;;;;;;5055747;28;20021;-75
2022/10/25 02:50:55;;;;;;;7.00;2.92;;;;;;;;;;5070969;28;20501;-74
2022/10/25 02:53:20;;;;;;;9.95;2.67;;;;;;;;;;5070727;28;20025;-75
2022/10/25 02:55:45;;;;;;;3.85;2.60;;;;;;;;;;5055676;28;20033;-76
2022/10/25 02:58:11;;;;;;;7.47;2.65;;;;;;;;;;5055573;28;20025;-75
2022/10/25 03:00:36;;;;;;;4.53;2.28;;;;;;;;;;5055369;28;20029;-75
2022/10/25 03:03:01;;;;;;;7.07;2.63;;;;;;;;;;5055651;28;20079;-75
2022/10/25 03:05:26;;;;;;;6.38;2.92;;;;;;;;;;5055408;28;20055;-75
2022/10/25 03:07:52;;;;;;;4.97;2.55;;;;;;;;;;5055379;28;20470;-75
2022/10/25 03:10:17;;;;;;;8.20;2.90;;;;;;;;;;5055512;28;20432;-75
2022/10/25 03:12:42;;;;;;;5.47;2.50;;;;;;;;;;5055203;28;20017;-75
2022/10/25 03:15:08;;;;;;;4.35;2.33;;;;;;;;;;5055414;28;20460;-75
2022/10/25 03:17:33;;;;;;;5.20;2.47;;;;;;;;;;5055168;28;20036;-75
2022/10/25 03:19:59;;;;;;;14.57;2.55;;;;;;;;;;5055011;28;20036;-74
2022/10/25 03:22:24;;;;;;;8.35;2.47;;;;;;;;;;5054986;28;20060;-75
2022/10/25 03:24:49;;;;;;;6.32;2.92;;;;;;;;;;5054995;28;20021;-74
2022/10/25 03:27:16;;;;;;;2.97;2.10;;;;;;;;;;5055278;28;20470;-74
2022/10/25 03:29:41;;;;;;;6.95;2.40;;;;;;;;;;5054979;28;20025;-74
2022/10/25 03:32:07;;;;;;;8.88;2.60;;;;;;;;;;5054745;28;20028;-74
2022/10/25 03:34:32;;;;;;;8.65;2.65;;;;;;;;;;5055112;28;20029;-74
2022/10/25 03:36:58;;;;;;;12.13;2.40;;;;;;;;;;5055016;28;20552;-74
2022/10/25 03:39:23;;;;;;;6.75;2.33;;;;;;;;;;5053339;28;20028;-74
2022/10/25 03:41:49;;;;;;;4.38;2.53;;;;;;;;;;5054649;28;20021;-74
2022/10/25 03:44:17;;;;;;;11.05;2.15;;;;;;;;;;5070139;28;20036;-75
2022/10/25 03:46:42;;;;;;;4.53;2.10;;;;;;;;;;5053824;28;20048;-75
2022/10/25 03:49:07;;;;;;;4.65;2.45;;;;;;;;;;5070236;28;20040;-74
2022/10/25 03:51:32;;;;;;;6.22;2.35;;;;;;;;;;5054424;28;20119;-75
2022/10/25 03:53:58;;;;;;;12.80;2.17;;;;;;;;;;5054365;28;20017;-75
2022/10/25 03:56:23;;;;;;;5.65;2.45;;;;;;;;;;5069788;28;20029;-75
2022/10/25 03:58:48;;;;;;;5.82;2.40;;;;;;;;;;5054375;28;20027;-75
2022/10/25 04:01:13;;;;;;;4.75;2.28;;;;;;;;;;5053000;28;20029;-74
2022/10/25 04:03:39;;;;;;;3.45;2.05;;;;;;;;;;5054447;28;20021;-76
2022/10/25 04:06:04;;;;;;;6.72;2.33;;;;;;;;;;5053654;28;20504;-75
2022/10/25 04:08:30;;;;;;;11.77;2.13;;;;;;;;;;5054485;28;20021;-75
2022/10/25 04:10:55;;;;;;;8.07;2.40;;;;;;;;;;5054097;28;20112;-75
2022/10/25 04:13:20;;;;;;;6.25;2.30;;;;;;;;;;5052716;28;20024;-75
2022/10/25 04:15:45;;;;;;;3.72;2.35;;;;;;;;;;5054021;28;20025;-75
2022/10/25 04:18:11;;;;;;;4.38;2.30;;;;;;;;;;5069346;28;20021;-75
2022/10/25 04:20:36;;;;;;;5.82;2.45;;;;;;;;;;5053660;28;20021;-75
2022/10/25 04:23:01;;;;;;;5.90;2.47;;;;;;;;;;5053860;28;20028;-75
2022/10/25 04:25:27;;;;;;;6.90;2.83;;;;;;;;;;5053877;28;20592;-75
2022/10/25 04:27:53;;;;;;;9.48;2.47;;;;;;;;;;5053723;28;20025;-75
2022/10/25 04:30:19;;;;;;;6.15;2.33;;;;;;;;;;5069056;28;20021;-75
2022/10/25 04:32:44;;;;;;;8.38;2.38;;;;;;;;;;5053621;28;20083;-75
2022/10/25 04:35:09;;;;;;;5.82;2.40;;;;;;;;;;5069025;28;20024;-75
2022/10/25 04:37:35;;;;;;;6.50;2.78;;;;;;;;;;5053958;28;20422;-75
2022/10/25 04:40:00;;;;;;;12.50;2.67;;;;;;;;;;5053462;28;20459;-75
2022/10/25 04:42:25;;;;;;;8.63;2.28;;;;;;;;;;5053468;28;20100;-75
2022/10/25 04:44:50;;;;;;;7.00;2.30;;;;;;;;;;5053725;28;20058;-75
2022/10/25 04:47:16;;;;;;;4.53;2.00;;;;;;;;;;5053402;28;20124;-75
2022/10/25 04:49:41;;;;;;;10.00;2.30;;;;;;;;;;5053306;28;20032;-75
2022/10/25 04:52:06;;;;;;;3.63;1.80;;;;;;;;;;5053675;28;20124;-75
2022/10/25 04:54:32;;;;;;;11.70;1.83;;;;;;;;;;5052009;28;20032;-75
2022/10/25 04:56:57;;;;;;;8.18;2.53;;;;;;;;;;5068661;28;20082;-75
2022/10/25 04:59:22;;;;;;;7.95;1.70;;;;;;;;;;5053389;28;20033;-75
2022/10/25 05:01:47;;;;;;;4.80;1.80;;;;;;;;;;5053263;28;20114;-75
2022/10/25 05:04:13;;;;;;;4.72;1.73;;;;;;;;;;5053076;28;20112;-75
2022/10/25 05:06:38;;;;;;;3.95;1.77;;;;;;;;;;5053461;28;20025;-74
2022/10/25 05:09:03;;;;;;;7.43;2.10;;;;;;;;;;5053097;28;20021;-74
2022/10/25 05:11:28;;;;;;;6.88;1.70;;;;;;;;;;5052962;28;20075;-74
2022/10/25 05:13:54;;;;;;;4.75;2.10;;;;;;;;;;5053265;28;20043;-75
2022/10/25 05:16:22;;;;;;;7.28;2.33;;;;;;;;;;5052903;28;20074;-74
2022/10/25 05:18:53;;;;;;;5.18;2.60;;;;;;;;;;5052997;28;20033;-74
2022/10/25 05:21:19;;;;;;;9.75;2.97;;;;;;;;;;5052993;28;20028;-74
2022/10/25 05:23:45;;;;;;;6.47;3.00;;;;;;;;;;5053134;28;20033;-74
2022/10/25 05:26:16;;;;;;;7.90;2.72;;;;;;;;;;5053008;28;20474;-75
2022/10/25 05:28:43;;;;;;;6.57;2.63;;;;;;;;;;5068308;28;20029;-75
2022/10/25 05:31:14;;;;;;;10.65;2.97;;;;;;;;;;5053058;28;20017;-75
2022/10/25 05:33:40;;;;;;;4.30;1.95;;;;;;;;;;5053114;28;20021;-74
2022/10/25 05:36:05;;;;;;;5.05;2.47;;;;;;;;;;5051409;28;20017;-75
2022/10/25 05:38:31;;;;;;;8.02;3.00;;;;;;;;;;5051678;28;20167;-75
2022/10/25 05:40:58;;;;;;;5.35;2.47;;;;;;;;;;5068379;28;20032;-75
2022/10/25 05:43:28;;;;;;;7.60;2.60;;;;;;;;;;5052959;28;20039;-73
2022/10/25 05:46:25;;;;;;;6.80;3.20;;;;;;;;;;5053089;28;20560;-75
2022/10/25 05:48:52;;;;;;;5.10;2.50;;;;;;;;;;5051980;28;20045;-74
2022/10/25 05:51:26;;;;;;;12.15;2.80;;;;;;;;;;5051515;28;20024;-75
2022/10/25 05:53:53;;;;;;;;;;;;;;;;;;5053046;28;20600;-74
2022/10/25 05:56:20;;;;;;;12.75;3.38;;;;;;;;;;5052907;28;19908;-74
2022/10/25 05:58:45;;;;;;;6.78;3.20;;;;;;;;;;5051866;28;20419;-75
2022/10/25 06:01:13;;;;;;;8.80;3.40;;;;;;;;;;5050073;28;20122;-75
2022/10/25 06:03:38;;;;;;;7.43;2.67;;;;;;;;;;5046557;28;20410;-75
2022/10/25 06:06:06;;;;;;;8.70;2.70;;;;;;;;;;5046573;28;20111;-75
2022/10/25 06:08:32;;;;;;;11.57;2.72;;;;;;;;;;5048534;28;20025;-76
2022/10/25 06:11:08;;;;;;;7.97;2.65;;;;;;;;;;5064198;28;20393;-75
2022/10/25 06:13:34;;;;;;;8.40;2.50;;;;;;;;;;5048751;28;20025;-75
2022/10/25 06:16:08;;;;;;;6.00;2.25;;;;;;;;;;5048627;28;20473;-74
2022/10/25 06:18:34;;;;;;;6.28;2.50;;;;;;;;;;5063801;28;20037;-74
2022/10/25 06:21:01;;;;;;;5.32;2.55;;;;;;;;;;5048594;28;20120;-76
2022/10/25 06:23:27;;;;;;;8.40;2.92;;;;;;;;;;5047433;28;20029;-74
2022/10/25 06:25:57;;;;;;;11.75;2.78;;;;;;;;;;5063974;28;20021;-74
2022/10/25 06:28:23;;;;;;;6.47;2.13;;;;;;;;;;5051070;28;20448;-74
2022/10/25 06:30:48;;;;;;;7.45;2.35;;;;;;;;;;5050745;28;20116;-74
2022/10/25 06:33:13;;;;;;;6.82;2.20;;;;;;;;;;5052166;28;20027;-75
2022/10/25 06:35:38;;;;;;;5.85;2.30;;;;;;;;;;5052722;28;20108;-74
2022/10/25 06:38:04;;;;;;;3.00;1.75;;;;;;;;;;5067725;28;20474;-74
2022/10/25 06:40:29;;;;;;;8.02;2.05;;;;;;;;;;5052162;28;20031;-75
2022/10/25 06:42:55;;;;;;;3.58;1.38;;;;;;;;;;5051671;28;20020;-75
2022/10/25 06:45:22;;;;;;;6.75;1.50;;;;;;;;;;5052235;28;20036;-74
2022/10/25 06:47:48;;;;;;;5.20;1.40;;;;;;;;;;5067605;28;20029;-75
2022/10/25 06:50:13;;;;;;;10.18;1.45;;;;;;;;;;5052012;28;20028;-75
2022/10/25 06:52:38;;;;;;;4.70;1.20;;;;;;;;;;5051956;28;20027;-74
2022/10/25 06:55:04;;;;;;;11.13;1.30;;;;;;;;;;5051753;28;20043;-74
2022/10/25 06:57:29;;;;;;;2.78;1.10;;;;;;;;;;5052068;28;20025;-74
2022/10/25 06:59:55;;;;;;;3.65;1.23;;;;;;;;;;5051776;28;20051;-74
2022/10/25 07:02:20;;;;;;;4.18;1.40;;;;;;;;;;5051808;28;20033;-74
2022/10/25 07:04:45;;;;;;;4.15;1.88;;;;;;;;;;5067074;28;20040;-74
2022/10/25 07:07:13;;;;;;;2.47;1.25;;;;;;;;;;5052368;28;20128;-75
2022/10/25 07:09:39;;;;;;;5.50;1.17;;;;;;;;;;5052268;28;20386;-76
2022/10/25 07:12:04;;;;;;;3.42;1.20;;;;;;;;;;5066841;28;20086;-76
2022/10/25 07:14:30;;;;;;;3.72;1.35;;;;;;;;;;5051536;28;20029;-75
2022/10/25 07:16:56;;;;;;;3.47;1.30;;;;;;;;;;5052087;28;20386;-75
2022/10/25 07:19:22;;;;;;;3.65;1.40;;;;;;;;;;5051230;28;20491;-75
2022/10/25 07:21:48;;;;;;;5.63;1.20;;;;;;;;;;5052187;28;20379;-74
2022/10/25 07:24:13;;;;;;;4.75;1.30;;;;;;;;;;5053991;28;20039;-74
2022/10/25 07:26:39;;;;;;;2.35;1.20;;;;;;;;;;5070563;28;20025;-74
2022/10/25 07:29:04;;;;;;;3.70;1.00;;;;;;;;;;5053768;28;20032;-75
2022/10/25 07:31:34;;;;;;;3.13;1.05;;;;;;;;;;5054996;28;20033;-74
2022/10/25 07:34:01;;;;;;;4.00;1.10;;;;;;;;;;5070397;28;20043;-73
2022/10/25 07:36:26;;;;;;;4.72;0.80;;;;;;;;;;5055223;28;20036;-75
2022/10/25 07:38:52;;;;;;;1.65;1.00;;;;;;;;;;5054590;28;20032;-74
2022/10/25 07:41:18;;;;;;;3.08;1.30;;;;;;;;;;5054696;28;20029;-74
2022/10/25 07:43:43;;;;;;;2.90;1.20;;;;;;;;;;5054759;28;20429;-74
2022/10/25 07:46:08;;;;;;;2.85;1.15;;;;;;;;;;5055011;28;20031;-74
2022/10/25 07:48:34;;;;;;;7.28;1.30;;;;;;;;;;5054776;28;20447;-75
2022/10/25 07:51:18;;;;;;;3.33;1.40;;;;;;;;;;5054527;28;20398;-74
2022/10/25 07:53:43;;;;;;;3.45;1.40;;;;;;;;;;5054647;28;20517;-74
2022/10/25 07:56:12;;;;;;;5.78;1.30;;;;;;;;;;5054858;28;20029;-73
2022/10/25 07:58:37;;;;;;;5.85;1.08;;;;;;;;;;5054575;28;20474;-75
2022/10/25 08:01:05;;;;;;;8.02;1.35;;;;;;;;;;5054613;28;20025;-74
2022/10/25 08:03:31;;;;;;;2.47;1.20;;;;;;;;;;5054367;28;20379;-74
2022/10/25 08:05:57;;;;;;;4.40;1.27;;;;;;;;;;5070041;28;20055;-74
2022/10/25 08:08:24;;;;;;;3.50;1.40;;;;;;;;;;5054347;28;20020;-73
2022/10/25 08:10:49;;;;;;;5.68;1.05;;;;;;;;;;5054465;28;20019;-74
2022/10/25 08:13:14;;;;;;;4.28;1.75;;;;;;;;;;5054452;28;20025;-74
2022/10/25 08:15:40;;;;;;;2.80;1.02;;;;;;;;;;5054556;28;20455;-73
2022/10/25 08:18:08;;;;;;;2.25;0.70;;;;;;;;;;5054477;28;20024;-75
2022/10/25 08:20:34;;;;;;;6.80;1.05;;;;;;;;;;5054390;28;20088;-73
2022/10/25 08:23:00;;;;;;;1.85;1.00;;;;;;;;;;5054040;28;20025;-74
2022/10/25 08:25:27;;;;;;;10.15;0.98;;;;;;;;;;5054403;28;20032;-73
2022/10/25 08:27:52;;;;;;;2.28;0.88;;;;;;;;;;5053912;28;20100;-74
2022/10/25 08:30:18;;;;;;;5.45;1.10;;;;;;;;;;5054004;28;20155;-74
2022/10/25 08:32:43;;;;;;;1.92;1.05;;;;;;;;;;5054104;28;20021;-73
2022/10/25 08:35:08;;;;;;;2.13;1.02;;;;;;;;;;5054345;28;20071;-74
2022/10/25 08:37:33;;;;;;;1.88;0.80;;;;;;;;;;5069230;28;20470;-74
2022/10/25 08:39:59;;;;;;;2.00;0.57;;;;;;;;;;5053839;28;20021;-74
2022/10/25 08:42:40;;;;;;;4.13;0.90;;;;;;;;;;5053685;28;20427;-73
2022/10/25 08:45:14;;;;;;;3.00;0.95;;;;;;;;;;5053903;28;20027;-74
2022/10/25 08:47:43;;;;;;;2.00;0.90;;;;;;;;;;5053974;28;20029;-76
2022/10/25 08:50:36;;;;;;;2.03;0.80;;;;;;;;;;5053680;28;20078;-74
2022/10/25 08:53:05;;;;;;;3.60;1.17;;;;;;;;;;5053514;28;20040;-75
2022/10/25 08:55:43;;;;;;;6.03;0.90;;;;;;;;;;5068984;28;20021;-74
2022/10/25 08:58:20;;;;;;;3.70;1.15;;;;;;;;;;5069011;28;20478;-74
2022/10/25 09:00:47;;;;;;;2.38;0.98;;;;;;;;;;5053641;28;20021;-76
2022/10/25 09:03:15;;;;;;;5.20;0.98;;;;;;;;;;5068897;28;20482;-74
2022/10/25 09:05:40;;;;;;;12.35;1.30;;;;;;;;;;5053689;28;20100;-75
2022/10/25 09:08:27;;;;;;;3.73;1.20;;;;;;;;;;5053772;28;20059;-74
2022/10/25 09:11:03;;;;;;;3.40;0.80;;;;;;;;;;5053555;28;20265;-74
2022/10/25 09:13:43;;;;;;;5.80;0.90;;;;;;;;;;5053220;28;20470;-74
2022/10/25 09:16:32;;;;;;;6.60;1.30;;;;;;;;;;5068783;28;20021;-73
2022/10/25 09:18:57;;;;;;;1.67;0.90;;;;;;;;;;5053030;28;20500;-74
2022/10/25 09:21:44;;;;;;;2.90;0.85;;;;;;;;;;5053030;28;20031;-73
2022/10/25 09:24:26;;;;;;;6.82;1.10;;;;;;;;;;5053193;28;20110;-74
2022/10/25 09:27:13;;;;;;;4.68;0.90;;;;;;;;;;5053328;28;20044;-74
2022/10/25 09:29:53;;;;;;;2.72;0.70;;;;;;;;;;5053505;28;20032;-75
2022/10/25 09:32:33;;;;;;;2.72;0.80;;;;;;;;;;5053049;28;20021;-74
2022/10/25 09:35:00;;;;;;;3.17;1.10;;;;;;;;;;5051833;28;20494;-76
2022/10/25 09:37:37;;;;;;;3.97;0.90;;;;;;;;;;5053328;28;20028;-75
2022/10/25 09:40:08;;;;;;;3.33;0.90;;;;;;;;;;5053133;28;20032;-74
2022/10/25 09:42:37;;;;;;;5.30;0.85;;;;;;;;;;5053069;28;20032;-74
2022/10/25 09:45:25;;;;;;;1.80;0.75;;;;;;;;;;5051498;28;20031;-75
2022/10/25 09:48:00;;;;;;;2.25;0.90;;;;;;;;;;5053114;28;20036;-74
2022/10/25 09:50:30;;;;;;;2.45;0.80;;;;;;;;;;5053682;28;20363;-74
2022/10/25 09:53:03;;;;;;;18.40;1.05;;;;;;;;;;5052764;28;20048;-74
2022/10/25 09:55:49;;;;;;;2.30;0.80;;;;;;;;;;5053298;28;20053;-74
2022/10/25 09:58:21;;;;;;;1.73;0.75;;;;;;;;;;5068428;28;20509;-74
2022/10/25 10:00:48;;;;;;;4.97;0.80;;;;;;;;;;5068076;28;20504;-74
2022/10/25 10:03:14;;;;;;;2.65;0.68;;;;;;;;;;5054368;28;20028;-74
2022/10/25 10:05:45;;;;;;;3.08;0.88;;;;;;;;;;5056710;28;20389;-74
2022/10/25 10:08:10;;;;;;;2.55;1.00;;;;;;;;;;5057310;28;20425;-75
2022/10/25 10:10:36;;;;;;;3.28;1.00;;;;;;;;;;5056486;28;20068;-74
2022/10/25 10:13:12;;;;;;;2.40;0.80;;;;;;;;;;5056595;28;20497;-74
2022/10/25 10:15:48;;;;;;;3.17;0.80;;;;;;;;;;5056548;28;20017;-75
2022/10/25 10:18:29;;;;;;;2.30;0.85;;;;;;;;;;5056648;28;20025;-73
2022/10/25 10:21:16;;;;;;;2.38;0.85;;;;;;;;;;5056700;28;20389;-74
2022/10/25 10:23:41;;;;;;;0.93;0.55;;;;;;;;;;5071653;28;20025;-74
2022/10/25 10:26:11;;;;;;;2.40;0.70;;;;;;;;;;5071931;28;20033;-74
2022/10/25 10:28:36;;;;;;;3.70;0.90;;;;;;;;;;5056539;28;20258;-74
2022/10/25 10:31:04;;;;;;;2.42;0.90;;;;;;;;;;5056279;28;20071;-74
2022/10/25 10:33:31;;;;;;;3.80;0.98;;;;;;;;;;5071747;28;20033;-74
2022/10/25 10:36:22;;;;;;;2.65;0.80;;;;;;;;;;5056238;28;20024;-75
2022/10/25 10:38:48;;;;;;;4.00;1.27;;;;;;;;;;5056425;28;20032;-74
2022/10/25 10:41:25;;;;;;;3.15;0.93;;;;;;;;;;5056044;28;20409;-74
2022/10/25 10:44:07;;;;;;;3.42;0.77;;;;;;;;;;5071239;28;20024;-74
2022/10/25 10:46:32;;;;;;;4.00;1.00;;;;;;;;;;5056003;28;20028;-73
2022/10/25 10:48:57;;;;;;;1.83;0.90;;;;;;;;;;5055920;28;20024;-73
2022/10/25 10:51:37;;;;;;;3.67;1.00;;;;;;;;;;5055818;28;20044;-73
2022/10/25 10:54:20;;;;;;;1.15;0.63;;;;;;;;;;5055859;28;20029;-74
2022/10/25 10:57:00;;;;;;;3.23;0.70;;;;;;;;;;5055935;28;20032;-74
2022/10/25 10:59:37;;;;;;;3.42;0.80;;;;;;;;;;5056143;28;20462;-74
2022/10/25 11:02:29;;;;;;;1.65;0.70;;;;;;;;;;5055757;28;20108;-73
2022/10/25 11:04:55;;;;;;;4.03;0.77;;;;;;;;;;5055150;28;20037;-74
2022/10/25 11:07:35;;;;;;;3.63;1.20;;;;;;;;;;5055705;28;20029;-75
2022/10/25 11:10:16;;;;;;;4.97;1.10;;;;;;;;;;5054344;28;20078;-74
2022/10/25 11:12:42;;;;;;;4.43;1.05;;;;;;;;;;5070817;28;20025;-74
2022/10/25 11:15:12;;;;;;;3.88;0.85;;;;;;;;;;5055402;28;20494;-73
2022/10/25 11:17:45;;;;;;;2.95;0.77;;;;;;;;;;5055405;28;20064;-73
2022/10/25 11:20:17;;;;;;;2.40;0.90;;;;;;;;;;5054203;28;20509;-73
2022/10/25 11:23:01;;;;;;;3.08;0.90;;;;;;;;;;5055724;28;20035;-74
2022/10/25 11:25:48;;;;;;;3.95;1.15;;;;;;;;;;5055258;28;20021;-73
2022/10/25 11:28:32;;;;;;;4.57;1.10;;;;;;;;;;5055275;28;20029;-74
2022/10/25 11:31:22;;;;;;;8.55;1.00;;;;;;;;;;5055215;28;20024;-74
2022/10/25 11:34:07;;;;;;;4.50;0.82;;;;;;;;;;5055201;28;20102;-74
2022/10/25 11:37:04;;;;;;;3.38;0.90;;;;;;;;;;5053971;28;20044;-74
2022/10/25 11:39:56;;;;;;;3.35;0.90;;;;;;;;;;5070369;28;20031;-74
2022/10/25 11:42:45;;;;;;;2.88;0.70;;;;;;;;;;5055165;28;20033;-73
2022/10/25 11:45:16;;;;;;;2.80;0.70;;;;;;;;;;5054919;28;20025;-74
2022/10/25 11:47:48;;;;;;;5.57;0.88;;;;;;;;;;5055419;28;20052;-74
2022/10/25 11:50:19;;;;;;;4.82;1.98;;;;;;;;;;5054659;28;20425;-75
2022/10/25 11:53:11;;;;;;;5.20;1.50;;;;;;;;;;5054460;28;20029;-74
2022/10/25 11:55:46;;;;;;;2.45;0.70;;;;;;;;;;5054885;28;20040;-74
2022/10/25 11:58:32;;;;;;;3.03;1.17;;;;;;;;;;5055027;28;20428;-74
2022/10/25 12:01:12;;;;;;;4.60;1.10;;;;;;;;;;5054432;28;20029;-74
2022/10/25 12:04:00;;;;;;;4.22;0.93;;;;;;;;;;5054609;28;20025;-74
2022/10/25 12:06:45;;;;;;;1.75;0.70;;;;;;;;;;5054935;28;20194;-74
2022/10/25 12:09:22;;;;;;;2.53;0.73;;;;;;;;;;5053594;28;20066;-73
2022/10/25 12:11:54;;;;;;;1.85;0.70;;;;;;;;;;5054328;28;20417;-73
2022/10/25 12:14:27;;;;;;;2.45;0.75;;;;;;;;;;5054308;28;20098;-73
2022/10/25 12:16:55;;;;;;;1.87;0.90;;;;;;;;;;5069600;28;20375;-74
2022/10/25 12:19:27;;;;;;;5.88;0.88;;;;;;;;;;5054001;28;20028;-73
2022/10/25 12:21:59;;;;;;;3.55;0.95;;;;;;;;;;5054093;28;20135;-73
2022/10/25 12:24:36;;;;;;;4.20;0.80;;;;;;;;;;5069286;28;20112;-74
2022/10/25 12:27:03;;;;;;;1.42;0.68;;;;;;;;;;5053626;28;20021;-73
2022/10/25 12:29:42;;;;;;;3.58;0.85;;;;;;;;;;5054113;28;20079;-74
2022/10/25 12:32:14;;;;;;;1.92;0.68;;;;;;;;;;5053743;28;20045;-74
2022/10/25 12:34:46;;;;;;;3.90;0.63;;;;;;;;;;5053803;28;20070;-74
2022/10/25 12:37:28;;;;;;;4.18;0.93;;;;;;;;;;5053794;28;20112;-73
2022/10/25 12:39:53;;;;;;;4.78;0.77;;;;;;;;;;5053615;28;20025;-74
2022/10/25 12:42:40;;;;;;;3.25;0.80;;;;;;;;;;5053494;28;20021;-75
2022/10/25 12:45:27;;;;;;;1.90;0.70;;;;;;;;;;5053522;28;20471;-74
2022/10/25 12:48:01;;;;;;;1.92;1.10;;;;;;;;;;5053808;28;20035;-75
2022/10/25 12:50:48;;;;;;;3.33;0.77;;;;;;;;;;5068737;28;20036;-74
2022/10/25 12:53:30;;;;;;;3.05;0.50;;;;;;;;;;5053545;28;20051;-73
2022/10/25 12:56:20;;;;;;;2.08;0.65;;;;;;;;;;5053477;28;20033;-74
2022/10/25 12:59:21;;;;;;;2.00;0.85;;;;;;;;;;5068701;28;20027;-74
2022/10/25 13:02:08;;;;;;;3.92;0.80;;;;;;;;;;5043563;28;20080;-74
2022/10/25 13:04:54;;;;;;;9.45;1.02;;;;;;;;;;5053862;28;20109;-74
2022/10/25 13:07:22;;;;;;;2.70;0.73;;;;;;;;;;5068685;28;20056;-74
2022/10/25 13:09:47;;;;;;;2.30;0.68;;;;;;;;;;5053382;28;20039;-73
2022/10/25 13:12:29;;;;;;;3.63;0.80;;;;;;;;;;5052933;28;20120;-73
2022/10/25 13:14:57;;;;;;;1.92;0.70;;;;;;;;;;5051979;28;20094;-74
2022/10/25 13:17:22;;;;;;;1.90;0.77;;;;;;;;;;5053422;28;20102;-73
2022/10/25 13:19:49;;;;;;;1.67;0.70;;;;;;;;;;5053215;28;20025;-73
2022/10/25 13:22:31;;;;;;;2.50;0.75;;;;;;;;;;5053193;28;20728;-74
2022/10/25 13:24:59;;;;;;;2.25;0.85;;;;;;;;;;5052934;28;20478;-73
2022/10/25 13:27:33;;;;;;;4.88;0.88;;;;;;;;;;5052994;28;20025;-73
2022/10/25 13:30:07;;;;;;;3.20;0.80;;;;;;;;;;5053250;28;20466;-73
2022/10/25 13:32:36;;;;;;;3.10;0.73;;;;;;;;;;5053208;28;20028;-73
2022/10/25 13:35:22;;;;;;;1.52;0.85;;;;;;;;;;5052970;28;20391;-73
2022/10/25 13:38:04;;;;;;;1.60;0.57;;;;;;;;;;5067378;28;20028;-74
2022/10/25 13:40:29;;;;;;;3.38;0.93;;;;;;;;;;5053933;28;20035;-74
2022/10/25 13:43:04;;;;;;;3.85;0.68;;;;;;;;;;5055941;28;20088;-74
2022/10/25 13:45:36;;;;;;;2.22;0.70;;;;;;;;;;5055168;28;20029;-73
2022/10/25 13:48:21;;;;;;;2.47;0.77;;;;;;;;;;5054728;28;20033;-74
2022/10/25 13:50:51;;;;;;;7.47;1.13;;;;;;;;;;5055304;28;20400;-73
2022/10/25 13:53:36;;;;;;;2.22;0.90;;;;;;;;;;5056160;28;20025;-74
2022/10/25 13:56:07;;;;;;;1.92;0.80;;;;;;;;;;5055444;28;20020;-74
2022/10/25 13:58:32;;;;;;;3.65;0.80;;;;;;;;;;5055546;28;20025;-74
2022/10/25 14:01:16;;;;;;;4.20;0.80;;;;;;;;;;5055307;28;20029;-73
2022/10/25 14:04:00;;;;;;;1.35;0.60;;;;;;;;;;5055405;28;20029;-73
2022/10/25 14:06:28;;;;;;;1.63;0.63;;;;;;;;;;5055137;28;20051;-74
2022/10/25 14:09:15;;;;;;;1.42;0.70;;;;;;;;;;5070379;28;20025;-73
2022/10/25 14:11:54;;;;;;;2.65;0.98;;;;;;;;;;5055502;28;20025;-74
2022/10/25 14:14:33;;;;;;;1.35;0.73;;;;;;;;;;5054954;28;20083;-73
2022/10/25 14:17:28;;;;;;;0.90;0.75;;;;;;;;;;5055760;28;20029;-73
2022/10/25 14:19:57;;;;;;;1.42;0.73;;;;;;;;;;5055503;28;20075;-74
2022/10/25 14:22:34;;;;;;;2.97;1.00;;;;;;;;;;5054971;28;20032;-74
2022/10/25 14:25:06;;;;;;;1.42;0.77;;;;;;;;;;5053710;28;20024;-74
2022/10/25 14:27:35;;;;;;;4.18;0.90;;;;;;;;;;5051295;28;20032;-74
2022/10/25 14:30:19;;;;;;;3.20;0.90;;;;;;;;;;5052892;28;20119;-74
2022/10/25 14:32:50;;;;;;;3.85;0.88;;;;;;;;;;5052818;28;20025;-74
2022/10/25 14:35:15;;;;;;;5.15;1.00;;;;;;;;;;5052831;28;20108;-74
2022/10/25 14:37:42;;;;;;;3.35;0.82;;;;;;;;;;5052421;28;20017;-75
2022/10/25 14:40:34;;;;;;;2.90;0.80;;;;;;;;;;5052610;28;20028;-74
2022/10/25 14:43:21;;;;;;;2.88;0.73;;;;;;;;;;5052315;28;20059;-74
2022/10/25 14:45:57;;;;;;;1.65;0.90;;;;;;;;;;5052317;28;20100;-75
2022/10/25 14:48:22;;;;;;;4.53;0.90;;;;;;;;;;5052569;28;20120;-75
2022/10/25 14:50:48;;;;;;;2.25;1.00;;;;;;;;;;5055820;28;20453;-73
2022/10/25 14:53:16;;;;;;;2.08;0.80;;;;;;;;;;5056007;28;20024;-73
2022/10/25 14:55:52;;;;;;;1.95;0.80;;;;;;;;;;5055818;28;20037;-73
2022/10/25 14:58:17;;;;;;;4.20;1.20;;;;;;;;;;5055781;28;20104;-73
2022/10/25 15:00:54;;;;;;;2.40;0.80;;;;;;;;;;5055835;28;20112;-73
2022/10/25 15:03:19;;;;;;;2.35;0.90;;;;;;;;;;5055587;28;20031;-75
2022/10/25 15:05:45;;;;;;;2.95;1.00;;;;;;;;;;5055693;28;20021;-74
2022/10/25 15:08:16;;;;;;;2.80;1.05;;;;;;;;;;5055368;28;20037;-74